Time;durP1;ratioP1;P1;durP2;ratioP2;P2;SDS_P1;SDS_P2;PMS_P1;PMS_P2;Temp;Humidity;BMP_temperature;BMP_pressure;BME280_temperature;BME280_humidity;BME280_pressure;Samples;Min_cycle;Max_cycle;Signal;HPM_P1;HPM_P2
2021/09/15 00:01:30;;;;;;;3.42;3.13;;;21.20;77.40;;;;;;5133141;27;20039;-46
2021/09/15 00:03:56;;;;;;;4.07;3.67;;;21.20;77.40;;;;;;5133218;28;20496;-42
2021/09/15 00:06:22;;;;;;;4.40;4.00;;;21.20;77.40;;;;;;5133724;28;20375;-44
2021/09/15 00:08:47;;;;;;;3.90;3.50;;;21.20;77.40;;;;;;5133522;28;20039;-53
2021/09/15 00:11:17;;;;;;;4.20;3.80;;;21.20;77.40;;;;;;5133319;28;20475;-46
2021/09/15 00:13:42;;;;;;;4.28;3.88;;;21.20;77.40;;;;;;5133069;28;20054;-45
2021/09/15 00:16:08;;;;;;;4.05;3.75;;;21.20;77.40;;;;;;5132853;28;20035;-47
2021/09/15 00:18:34;;;;;;;3.90;3.60;;;21.20;77.40;;;;;;5132998;28;20046;-48
2021/09/15 00:20:59;;;;;;;4.25;3.85;;;21.20;77.40;;;;;;5133099;28;20045;-50
2021/09/15 00:23:25;;;;;;;4.13;3.70;;;21.20;77.40;;;;;;5114182;28;20043;-49
2021/09/15 00:25:51;;;;;;;4.28;3.88;;;21.20;77.40;;;;;;5133338;28;20071;-46
2021/09/15 00:28:16;;;;;;;4.00;3.60;;;21.20;78.00;;;;;;5133325;28;20047;-47
2021/09/15 00:30:42;;;;;;;4.32;3.92;;;21.20;77.40;;;;;;5132484;28;20043;-46
2021/09/15 00:33:08;;;;;;;4.15;3.75;;;21.20;77.40;;;;;;5132833;28;20043;-46
2021/09/15 00:35:33;;;;;;;3.97;3.65;;;21.20;77.40;;;;;;5132748;28;20056;-53
2021/09/15 00:37:59;;;;;;;4.05;3.75;;;21.20;77.40;;;;;;5133556;28;20096;-47
2021/09/15 00:40:25;;;;;;;4.47;4.07;;;21.20;77.40;;;;;;5132821;28;20043;-46
2021/09/15 00:42:50;;;;;;;3.72;3.40;;;21.20;77.40;;;;;;5133044;28;20043;-46
2021/09/15 00:45:17;;;;;;;4.53;4.13;;;21.20;77.40;;;;;;5132905;28;20096;-48
2021/09/15 00:47:42;;;;;;;4.20;3.80;;;21.20;77.40;;;;;;5131528;28;20046;-47
2021/09/15 00:50:08;;;;;;;4.25;3.85;;;21.20;77.40;;;;;;5132851;27;20051;-49
2021/09/15 00:52:34;;;;;;;4.43;4.00;;;21.20;77.40;;;;;;5136100;27;20046;-46
2021/09/15 00:55:00;;;;;;;4.65;4.25;;;21.10;77.30;;;;;;5136902;27;20398;-47
2021/09/15 00:57:25;;;;;;;4.60;4.20;;;21.20;77.40;;;;;;5136937;27;20035;-45
2021/09/15 00:59:51;;;;;;;4.65;4.25;;;21.20;77.40;;;;;;5136892;27;20553;-52
2021/09/15 01:02:17;;;;;;;4.38;3.97;;;21.20;77.40;;;;;;5135772;27;20038;-46
2021/09/15 01:04:46;;;;;;;6.10;4.18;;;21.20;77.40;;;;;;5136617;27;20397;-50
2021/09/15 01:07:13;;;;;;;4.25;3.85;;;21.20;77.40;;;;;;5136637;27;20038;-46
2021/09/15 01:09:39;;;;;;;4.55;4.15;;;21.20;77.40;;;;;;5136091;27;20055;-45
2021/09/15 01:12:10;;;;;;;4.55;4.15;;;21.20;77.40;;;;;;5136621;27;20042;-47
2021/09/15 01:14:38;;;;;;;4.18;3.85;;;21.20;78.00;;;;;;5136510;27;20043;-48
2021/09/15 01:17:04;;;;;;;4.15;3.75;;;21.20;77.40;;;;;;5117326;27;20046;-48
2021/09/15 01:19:30;;;;;;;4.20;3.80;;;21.20;77.40;;;;;;5135430;27;20433;-46
2021/09/15 01:21:57;;;;;;;4.30;3.90;;;21.20;77.40;;;;;;5136510;27;20124;-45
2021/09/15 01:24:26;;;;;;;4.15;3.75;;;21.20;77.40;;;;;;5136408;27;20066;-47
2021/09/15 01:26:52;;;;;;;4.35;3.95;;;21.20;77.40;;;;;;5135832;27;20058;-45
2021/09/15 01:29:27;;;;;;;4.57;4.18;;;21.20;77.40;;;;;;5136427;27;20042;-49
2021/09/15 01:31:56;;;;;;;;;;;21.20;77.40;;;;;;5136247;27;20083;-47
2021/09/15 01:34:22;;;;;;;4.20;3.80;;;21.20;77.80;;;;;;5135226;27;19923;-50
2021/09/15 01:36:48;;;;;;;3.78;3.45;;;21.20;77.50;;;;;;5136118;27;20058;-44
2021/09/15 01:39:14;;;;;;;4.10;3.55;;;21.20;77.50;;;;;;5135583;27;20043;-45
2021/09/15 01:41:39;;;;;;;3.78;3.47;;;21.20;77.50;;;;;;5135339;27;20462;-46
2021/09/15 01:44:05;;;;;;;3.60;3.30;;;21.20;77.40;;;;;;5136164;27;20393;-47
2021/09/15 01:46:31;;;;;;;3.95;3.65;;;21.20;77.40;;;;;;5136403;27;20078;-50
2021/09/15 01:48:56;;;;;;;3.50;3.20;;;21.20;77.40;;;;;;5135667;27;20047;-43
2021/09/15 01:51:22;;;;;;;3.70;3.40;;;21.20;77.50;;;;;;5135127;27;20057;-42
2021/09/15 01:53:47;;;;;;;4.25;3.85;;;21.20;77.40;;;;;;5135952;27;20504;-50
2021/09/15 01:56:13;;;;;;;4.13;3.75;;;21.20;77.40;;;;;;5135370;27;20043;-46
2021/09/15 01:58:38;;;;;;;3.70;3.30;;;21.20;77.40;;;;;;5135694;27;20441;-45
2021/09/15 02:01:04;;;;;;;3.75;3.45;;;21.20;77.40;;;;;;5136130;27;20048;-46
2021/09/15 02:03:30;;;;;;;3.67;3.38;;;21.20;77.40;;;;;;5135422;27;20135;-47
2021/09/15 02:05:56;;;;;;;3.95;3.63;;;21.20;77.40;;;;;;5135086;27;20074;-51
2021/09/15 02:08:21;;;;;;;3.75;3.42;;;21.20;77.40;;;;;;5117153;27;20407;-45
2021/09/15 02:10:47;;;;;;;4.25;3.35;;;21.20;77.40;;;;;;5135386;27;20054;-46
2021/09/15 02:13:12;;;;;;;3.45;3.15;;;21.20;77.40;;;;;;5135194;27;20420;-44
2021/09/15 02:15:38;;;;;;;3.90;3.60;;;21.20;77.40;;;;;;5116146;27;20051;-44
2021/09/15 02:18:04;;;;;;;3.78;3.45;;;21.30;77.50;;;;;;5135761;27;20039;-45
2021/09/15 02:20:29;;;;;;;3.60;3.30;;;21.20;77.40;;;;;;5135209;27;20039;-51
2021/09/15 02:22:55;;;;;;;3.60;3.30;;;21.20;77.40;;;;;;5134552;27;20722;-44
2021/09/15 02:25:21;;;;;;;3.78;3.40;;;21.20;77.40;;;;;;5134998;27;20062;-49
2021/09/15 02:27:46;;;;;;;3.58;3.28;;;21.20;77.40;;;;;;5135365;27;20039;-44
2021/09/15 02:30:12;;;;;;;3.90;3.60;;;21.20;77.40;;;;;;5134826;27;20043;-47
2021/09/15 02:32:38;;;;;;;3.60;3.30;;;21.20;77.40;;;;;;5134830;27;20041;-47
2021/09/15 02:35:04;;;;;;;3.75;3.45;;;21.20;77.40;;;;;;5134415;27;20467;-43
2021/09/15 02:37:30;;;;;;;3.95;3.65;;;21.20;77.40;;;;;;5134782;27;20076;-48
2021/09/15 02:39:55;;;;;;;3.70;3.40;;;21.20;77.40;;;;;;5134525;27;20043;-42
2021/09/15 02:42:21;;;;;;;3.75;3.45;;;21.10;77.40;;;;;;5134732;27;20043;-48
2021/09/15 02:44:46;;;;;;;3.75;3.45;;;21.20;78.00;;;;;;5134713;27;20038;-45
2021/09/15 02:47:12;;;;;;;3.40;3.10;;;21.20;77.40;;;;;;5133694;27;20433;-46
2021/09/15 02:49:38;;;;;;;3.53;3.22;;;21.20;77.40;;;;;;5135137;27;20553;-50
2021/09/15 02:52:04;;;;;;;3.40;3.10;;;21.20;77.40;;;;;;5134514;27;20031;-45
2021/09/15 02:54:29;;;;;;;3.72;3.42;;;21.20;77.40;;;;;;5134201;27;20782;-46
2021/09/15 02:56:55;;;;;;;3.83;3.53;;;21.20;77.40;;;;;;5134346;27;20122;-48
2021/09/15 02:59:21;;;;;;;3.63;3.33;;;21.20;77.40;;;;;;5134956;27;20091;-48
2021/09/15 03:01:46;;;;;;;3.47;3.17;;;21.20;77.40;;;;;;5133992;27;20414;-47
2021/09/15 03:04:12;;;;;;;3.92;3.55;;;21.20;77.40;;;;;;5134881;27;20031;-43
2021/09/15 03:06:38;;;;;;;3.50;3.20;;;21.20;77.40;;;;;;5134519;27;20043;-48
2021/09/15 03:09:03;;;;;;;3.60;3.30;;;21.20;77.40;;;;;;5133266;27;20077;-49
2021/09/15 03:11:29;;;;;;;3.50;3.20;;;21.20;77.40;;;;;;5134385;27;20043;-50
2021/09/15 03:13:55;;;;;;;3.42;3.13;;;21.20;77.40;;;;;;5133791;27;20042;-43
2021/09/15 03:16:23;;;;;;;3.70;3.40;;;21.20;78.10;;;;;;5115129;27;20051;-44
2021/09/15 03:18:48;;;;;;;3.25;2.95;;;21.20;77.40;;;;;;5134351;27;20391;-45
2021/09/15 03:21:14;;;;;;;3.30;3.00;;;21.20;77.40;;;;;;5134283;27;20047;-51
2021/09/15 03:23:40;;;;;;;3.50;3.20;;;21.20;77.40;;;;;;5133915;27;20089;-46
2021/09/15 03:26:05;;;;;;;3.92;3.53;;;21.20;77.40;;;;;;5133681;27;20083;-46
2021/09/15 03:28:31;;;;;;;3.67;3.38;;;21.20;77.40;;;;;;5133520;27;20046;-47
2021/09/15 03:30:57;;;;;;;3.70;3.40;;;21.20;77.40;;;;;;5133800;27;20088;-45
2021/09/15 03:33:22;;;;;;;3.70;3.38;;;21.20;77.40;;;;;;5134078;27;20039;-47
2021/09/15 03:35:48;;;;;;;3.45;3.15;;;21.10;78.00;;;;;;5133915;27;20103;-44
2021/09/15 03:38:14;;;;;;;3.35;3.05;;;21.20;77.40;;;;;;5133297;27;20035;-43
2021/09/15 03:40:39;;;;;;;3.30;3.00;;;21.20;77.40;;;;;;5132520;27;20043;-45
2021/09/15 03:43:05;;;;;;;3.35;3.05;;;21.20;77.40;;;;;;5133648;27;20042;-48
2021/09/15 03:45:30;;;;;;;3.50;3.20;;;21.20;77.40;;;;;;5133642;27;20399;-46
2021/09/15 03:47:56;;;;;;;3.33;3.03;;;21.20;77.40;;;;;;5133170;27;20130;-46
2021/09/15 03:50:22;;;;;;;3.83;3.45;;;21.20;77.40;;;;;;5133731;27;20047;-45
2021/09/15 03:52:47;;;;;;;3.70;3.40;;;21.20;77.40;;;;;;5133904;27;20067;-48
2021/09/15 03:55:13;;;;;;;3.47;3.17;;;21.20;77.40;;;;;;5133633;27;20489;-42
2021/09/15 03:57:39;;;;;;;3.45;3.05;;;21.20;77.40;;;;;;5132766;27;20780;-49
2021/09/15 04:00:05;;;;;;;3.67;3.38;;;21.20;77.40;;;;;;5132926;27;20074;-44
2021/09/15 04:02:30;;;;;;;3.40;3.10;;;21.20;77.40;;;;;;5133156;27;20442;-50
2021/09/15 04:04:56;;;;;;;3.50;3.15;;;21.20;77.40;;;;;;5133320;28;20047;-47
2021/09/15 04:07:22;;;;;;;3.30;3.00;;;21.20;77.40;;;;;;5133543;28;20053;-42
2021/09/15 04:09:47;;;;;;;3.60;3.28;;;21.20;77.40;;;;;;5132510;28;20042;-43
2021/09/15 04:12:13;;;;;;;3.70;3.40;;;21.20;77.40;;;;;;5132831;28;20041;-51
2021/09/15 04:14:39;;;;;;;3.65;3.35;;;21.20;77.40;;;;;;5133621;28;20039;-44
2021/09/15 04:17:05;;;;;;;3.85;3.55;;;21.10;77.30;;;;;;5133323;28;20039;-45
2021/09/15 04:19:32;;;;;;;3.40;3.10;;;21.20;77.40;;;;;;5132984;28;20175;-45
2021/09/15 04:21:58;;;;;;;3.95;3.63;;;21.20;77.40;;;;;;5133165;28;20043;-43
2021/09/15 04:32:39;;;;;;;3.90;3.40;;;21.10;77.30;;;;;;5136800;27;20043;-46
2021/09/15 04:35:05;;;;;;;3.42;3.13;;;21.20;77.40;;;;;;5137188;27;20091;-46
2021/09/15 04:37:31;;;;;;;3.40;3.10;;;21.20;77.40;;;;;;5137372;27;20039;-46
2021/09/15 04:39:57;;;;;;;3.22;2.80;;;21.10;77.30;;;;;;5137145;27;20043;-44
2021/09/15 04:42:22;;;;;;;3.50;3.20;;;21.20;77.40;;;;;;5136930;27;20039;-48
2021/09/15 04:44:48;;;;;;;3.58;3.28;;;21.20;77.40;;;;;;5136752;27;20469;-47
2021/09/15 04:47:14;;;;;;;3.47;3.17;;;21.10;77.30;;;;;;5136003;27;20050;-48
2021/09/15 04:49:39;;;;;;;3.78;3.47;;;21.20;77.40;;;;;;5137431;27;20498;-43
2021/09/15 04:52:05;;;;;;;3.40;3.10;;;21.10;77.40;;;;;;5136505;27;20126;-45
2021/09/15 04:54:31;;;;;;;4.00;3.60;;;21.20;77.40;;;;;;5136716;27;20046;-46
2021/09/15 04:56:56;;;;;;;3.67;3.38;;;21.10;77.30;;;;;;5137273;27;20039;-48
2021/09/15 04:59:22;;;;;;;3.30;3.00;;;21.10;77.30;;;;;;5135864;27;20035;-43
2021/09/15 05:01:47;;;;;;;4.03;3.72;;;21.20;77.40;;;;;;5135566;27;20031;-49
2021/09/15 05:04:13;;;;;;;3.47;3.17;;;21.10;77.30;;;;;;5135751;27;20045;-48
2021/09/15 05:06:39;;;;;;;3.40;3.10;;;21.20;77.40;;;;;;5135473;27;20043;-47
2021/09/15 05:09:04;;;;;;;3.30;3.00;;;21.10;77.30;;;;;;5135682;27;20058;-47
2021/09/15 05:11:30;;;;;;;3.30;3.00;;;21.10;77.30;;;;;;5136323;27;20035;-48
2021/09/15 05:13:56;;;;;;;3.40;3.10;;;21.10;77.30;;;;;;5137096;27;20046;-50
2021/09/15 05:16:21;;;;;;;3.70;3.40;;;21.10;77.30;;;;;;5135963;27;20035;-51
2021/09/15 05:18:47;;;;;;;4.20;3.30;;;21.20;77.40;;;;;;5136234;27;20391;-49
2021/09/15 05:21:12;;;;;;;3.20;2.90;;;21.20;77.30;;;;;;5117789;27;20486;-47
2021/09/15 05:23:38;;;;;;;3.50;3.20;;;21.10;77.30;;;;;;5135800;27;20061;-52
2021/09/15 05:26:04;;;;;;;3.50;3.20;;;21.10;77.30;;;;;;5136041;27;20051;-49
2021/09/15 05:28:29;;;;;;;3.22;2.92;;;21.20;77.40;;;;;;5136631;27;20043;-50
2021/09/15 05:30:55;;;;;;;3.55;3.25;;;21.10;77.30;;;;;;5135716;27;20031;-51
2021/09/15 05:33:21;;;;;;;3.67;3.38;;;21.20;77.30;;;;;;5135833;27;20102;-50
2021/09/15 05:35:46;;;;;;;3.72;3.40;;;21.10;77.30;;;;;;5136070;27;20035;-52
2021/09/15 05:38:12;;;;;;;3.35;3.05;;;21.10;77.30;;;;;;5135821;27;20039;-49
2021/09/15 05:40:38;;;;;;;3.10;2.90;;;21.10;77.30;;;;;;5135522;27;20188;-50
2021/09/15 05:43:04;;;;;;;3.88;3.58;;;21.10;77.20;;;;;;5135905;27;20375;-49
2021/09/15 05:45:30;;;;;;;3.95;3.10;;;21.10;77.20;;;;;;5135278;27;20492;-47
2021/09/15 05:47:56;;;;;;;3.30;3.00;;;21.10;77.20;;;;;;5135355;27;20096;-49
2021/09/15 05:50:22;;;;;;;3.67;3.38;;;21.10;77.30;;;;;;5135906;27;20071;-51
2021/09/15 05:52:47;;;;;;;3.15;2.85;;;21.10;77.20;;;;;;5135781;27;20463;-47
2021/09/15 05:55:13;;;;;;;3.70;3.40;;;21.10;77.30;;;;;;5135045;27;20043;-50
2021/09/15 05:57:39;;;;;;;3.78;3.47;;;21.10;77.30;;;;;;5135923;27;20536;-56
2021/09/15 06:00:06;;;;;;;3.00;2.80;;;21.10;77.30;;;;;;5135467;27;20376;-41
2021/09/15 06:02:32;;;;;;;3.33;3.03;;;21.10;77.30;;;;;;5134719;27;20566;-44
2021/09/15 06:04:57;;;;;;;3.63;3.20;;;21.10;77.20;;;;;;5135514;27;20074;-41
2021/09/15 06:07:23;;;;;;;3.92;3.10;;;21.10;77.20;;;;;;5135874;27;20035;-43
2021/09/15 06:09:49;;;;;;;3.83;3.33;;;21.10;77.20;;;;;;5135123;27;20084;-42
2021/09/15 06:12:14;;;;;;;3.28;2.97;;;21.10;77.30;;;;;;5116383;27;20499;-43
2021/09/15 06:14:40;;;;;;;3.40;3.10;;;21.10;77.30;;;;;;5135357;27;20099;-44
2021/09/15 06:17:06;;;;;;;3.72;3.40;;;21.10;77.30;;;;;;5135020;27;20487;-43
2021/09/15 06:19:33;;;;;;;3.65;3.33;;;21.10;77.20;;;;;;5135328;27;20406;-43
2021/09/15 06:21:58;;;;;;;3.63;3.33;;;21.10;77.20;;;;;;5116765;27;20122;-44
2021/09/15 06:24:24;;;;;;;3.78;3.47;;;21.10;77.20;;;;;;5135186;27;20087;-44
2021/09/15 06:26:51;;;;;;;3.40;3.10;;;21.10;77.20;;;;;;5135320;27;20051;-44
2021/09/15 06:29:17;;;;;;;3.72;3.30;;;21.10;77.20;;;;;;5135601;27;20046;-45
2021/09/15 06:31:43;;;;;;;3.97;3.50;;;21.10;77.20;;;;;;5135633;27;20039;-43
2021/09/15 06:34:09;;;;;;;3.67;3.38;;;21.10;77.20;;;;;;5134448;27;20484;-43
2021/09/15 06:36:37;;;;;;;3.80;3.50;;;21.10;77.20;;;;;;5134446;27;20084;-49
2021/09/15 06:39:03;;;;;;;3.60;3.30;;;21.10;77.30;;;;;;5134875;27;20471;-47
2021/09/15 06:41:28;;;;;;;3.95;3.55;;;21.10;77.20;;;;;;5135081;27;20046;-47
2021/09/15 06:43:54;;;;;;;3.83;3.42;;;21.10;77.20;;;;;;5134540;27;20104;-48
2021/09/15 06:46:20;;;;;;;3.58;3.28;;;21.10;77.20;;;;;;5135106;27;20042;-47
2021/09/15 06:48:46;;;;;;;3.97;3.58;;;21.10;77.30;;;;;;5133144;27;20027;-40
2021/09/15 06:51:11;;;;;;;3.50;3.20;;;21.10;77.20;;;;;;5134051;27;20099;-43
2021/09/15 06:53:37;;;;;;;3.70;3.40;;;21.10;77.20;;;;;;5134434;27;20050;-47
2021/09/15 06:56:03;;;;;;;3.60;3.30;;;21.10;77.20;;;;;;5133742;27;20038;-42
2021/09/15 06:58:28;;;;;;;3.33;3.03;;;21.10;77.30;;;;;;5134927;27;20047;-42
2021/09/15 07:00:54;;;;;;;3.40;3.10;;;21.10;77.30;;;;;;5134625;27;20047;-43
2021/09/15 07:03:20;;;;;;;24.13;19.95;;;21.10;77.30;;;;;;5134528;27;20479;-49
2021/09/15 07:05:45;;;;;;;24.58;20.48;;;21.10;77.80;;;;;;5133108;27;20039;-45
2021/09/15 07:08:11;;;;;;;20.50;17.75;;;21.10;78.20;;;;;;5134591;27;20035;-44
2021/09/15 07:10:47;;;;;;;19.98;17.25;;;21.10;78.40;;;;;;5110421;27;20462;-47
2021/09/15 07:13:13;;;;;;;18.52;15.60;;;21.10;78.40;;;;;;5109589;28;20124;-45
2021/09/15 07:15:39;;;;;;;19.23;15.75;;;21.10;78.50;;;;;;5110077;28;20456;-45
2021/09/15 07:18:06;;;;;;;17.85;15.63;;;21.10;79.00;;;;;;5108830;28;20040;-44
2021/09/15 07:20:32;;;;;;;19.38;16.83;;;21.10;78.40;;;;;;5110912;28;20404;-46
2021/09/15 07:22:58;;;;;;;20.67;17.05;;;21.10;78.30;;;;;;5108792;28;20052;-39
2021/09/15 07:25:23;;;;;;;18.92;16.55;;;21.10;78.30;;;;;;5110319;28;20123;-41
2021/09/15 07:27:50;;;;;;;17.77;15.57;;;21.10;78.20;;;;;;5109055;28;20088;-46
2021/09/15 07:30:15;;;;;;;18.05;15.38;;;21.10;78.10;;;;;;5110328;28;20131;-46
2021/09/15 07:32:41;;;;;;;17.42;15.23;;;21.10;78.10;;;;;;5110093;28;20068;-44
2021/09/15 07:35:10;;;;;;;19.88;16.38;;;21.10;78.00;;;;;;5109225;28;20093;-44
2021/09/15 07:37:37;;;;;;;18.65;15.70;;;21.10;78.00;;;;;;5109468;28;20039;-44
2021/09/15 07:40:05;;;;;;;17.08;14.30;;;21.10;78.00;;;;;;5109844;28;20065;-47
2021/09/15 07:42:30;;;;;;;16.45;14.65;;;21.10;78.00;;;;;;5143296;27;20052;-47
2021/09/15 07:44:56;;;;;;;16.58;14.60;;;21.10;77.90;;;;;;5110199;28;20057;-46
2021/09/15 07:47:22;;;;;;;15.60;13.88;;;21.10;77.90;;;;;;5108258;28;20043;-43
2021/09/15 07:49:49;;;;;;;15.93;14.23;;;21.10;77.90;;;;;;5109978;28;20050;-46
2021/09/15 07:52:15;;;;;;;15.10;13.15;;;21.10;77.90;;;;;;5110134;28;20446;-40
2021/09/15 07:54:41;;;;;;;16.25;14.15;;;21.10;77.80;;;;;;5109421;28;20048;-45
2021/09/15 07:57:07;;;;;;;16.60;14.10;;;21.10;77.80;;;;;;5109529;28;20036;-41
2021/09/15 07:59:32;;;;;;;15.43;13.65;;;21.10;77.80;;;;;;5109891;28;20040;-44
2021/09/15 08:01:59;;;;;;;15.57;13.32;;;21.10;77.80;;;;;;5109500;28;20040;-46
2021/09/15 08:04:24;;;;;;;14.05;12.50;;;21.00;77.70;;;;;;5108377;28;20076;-41
2021/09/15 08:06:50;;;;;;;14.30;12.38;;;21.10;77.70;;;;;;5109575;28;20071;-41
2021/09/15 08:09:16;;;;;;;14.40;12.90;;;21.10;77.70;;;;;;5108144;28;20055;-42
2021/09/15 08:11:41;;;;;;;14.32;11.57;;;21.10;77.70;;;;;;5109450;28;20086;-43
2021/09/15 08:14:07;;;;;;;14.95;12.48;;;21.10;77.70;;;;;;5109146;28;20065;-43
2021/09/15 08:16:33;;;;;;;12.80;11.48;;;21.10;77.70;;;;;;5108987;28;20047;-44
2021/09/15 08:19:02;;;;;;;14.80;12.55;;;21.10;77.70;;;;;;5108782;28;20502;-43
2021/09/15 08:21:30;;;;;;;13.70;12.23;;;21.10;77.70;;;;;;5098598;28;20111;-44
2021/09/15 08:23:56;;;;;;;13.38;11.40;;;21.10;77.70;;;;;;5095303;28;20407;-44
2021/09/15 08:26:22;;;;;;;13.52;11.68;;;21.10;77.70;;;;;;5095233;28;20040;-45
2021/09/15 08:28:48;;;;;;;13.35;11.95;;;21.10;77.70;;;;;;5093645;28;20043;-45
2021/09/15 08:31:14;;;;;;;15.43;13.02;;;21.10;77.70;;;;;;5095247;28;20514;-45
2021/09/15 08:33:39;;;;;;;12.95;11.05;;;21.10;77.70;;;;;;5095372;28;20051;-46
2021/09/15 08:36:05;;;;;;;13.35;11.52;;;21.10;77.70;;;;;;5095265;28;20189;-49
2021/09/15 08:38:31;;;;;;;11.95;10.73;;;21.10;77.70;;;;;;5093839;28;20101;-48
2021/09/15 08:41:00;;;;;;;13.95;11.32;;;21.10;77.60;;;;;;5094230;28;20048;-41
2021/09/15 08:43:26;;;;;;;12.95;11.65;;;21.10;77.70;;;;;;5094740;28;20059;-43
2021/09/15 08:45:55;;;;;;;11.85;10.57;;;21.10;77.70;;;;;;5094912;28;20040;-44
2021/09/15 08:48:21;;;;;;;12.70;9.80;;;21.10;77.60;;;;;;5095239;28;20040;-46
2021/09/15 08:50:51;;;;;;;11.38;10.18;;;21.10;77.60;;;;;;5094842;28;20130;-48
2021/09/15 08:53:18;;;;;;;10.63;9.52;;;21.10;77.70;;;;;;5094629;28;20048;-45
2021/09/15 08:55:46;;;;;;;10.70;9.60;;;21.10;77.60;;;;;;5094230;28;20055;-45
2021/09/15 08:58:14;;;;;;;11.02;9.93;;;21.10;77.60;;;;;;5085298;28;20044;-46
2021/09/15 09:00:40;;;;;;;10.27;9.23;;;21.10;77.70;;;;;;5081733;28;20127;-45
2021/09/15 09:03:06;;;;;;;10.82;9.73;;;21.10;77.60;;;;;;5092010;28;20044;-49
2021/09/15 09:05:32;;;;;;;10.82;9.73;;;21.10;77.60;;;;;;5093377;28;20044;-47
2021/09/15 09:07:59;;;;;;;11.57;9.35;;;21.10;77.60;;;;;;5092405;28;20048;-49
2021/09/15 09:10:24;;;;;;;10.45;9.32;;;21.10;77.70;;;;;;5091994;28;20060;-50
2021/09/15 09:12:50;;;;;;;10.88;9.30;;;21.10;77.70;;;;;;5091763;28;20070;-47
2021/09/15 09:15:27;;;;;;;10.32;9.10;;;21.10;77.70;;;;;;5094240;28;20135;-49
2021/09/15 09:17:58;;;;;;;10.13;9.00;;;21.10;77.60;;;;;;5093043;28;20357;-49
2021/09/15 09:20:35;;;;;;;9.60;8.70;;;21.10;77.70;;;;;;5092219;28;20124;-47
2021/09/15 09:23:04;;;;;;;10.07;8.27;;;21.10;77.70;;;;;;5094015;28;20044;-46
2021/09/15 09:25:39;;;;;;;10.30;8.90;;;21.10;77.70;;;;;;5091852;28;20120;-48
2021/09/15 09:28:23;;;;;;;;;;;21.10;77.70;;;;;;5075187;28;20076;-48
2021/09/15 09:30:51;;;;;;;8.93;8.02;;;21.10;78.10;;;;;;5093282;28;20018;-49
2021/09/15 09:33:18;;;;;;;9.90;8.80;;;21.10;78.50;;;;;;5090793;28;20036;-45
2021/09/15 09:35:52;;;;;;;9.23;8.30;;;21.10;77.80;;;;;;5092500;28;20122;-49
2021/09/15 09:38:25;;;;;;;9.30;8.35;;;21.10;77.70;;;;;;5092852;28;20043;-47
2021/09/15 09:41:19;;;;;;;9.27;8.27;;;21.10;77.70;;;;;;5092089;28;20547;-47
2021/09/15 09:43:54;;;;;;;9.00;8.07;;;21.10;78.50;;;;;;5090391;28;20425;-46
2021/09/15 09:46:31;;;;;;;;;;;21.10;77.80;;;;;;5091224;28;20044;-46
2021/09/15 09:48:59;;;;;;;9.95;8.50;;;21.10;78.20;;;;;;5091436;28;19931;-48
2021/09/15 09:51:44;;;;;;;9.65;8.18;;;21.10;77.90;;;;;;5092995;28;20044;-50
2021/09/15 09:54:13;;;;;;;8.75;7.85;;;21.10;77.90;;;;;;5093414;28;20040;-45
2021/09/15 09:56:42;;;;;;;8.40;7.60;;;21.10;77.80;;;;;;5105127;28;20166;-46
2021/09/15 09:59:09;;;;;;;8.35;7.55;;;21.10;77.80;;;;;;5073359;28;20406;-46
2021/09/15 10:01:40;;;;;;;8.93;8.02;;;21.10;77.80;;;;;;5073475;28;20131;-49
2021/09/15 10:04:06;;;;;;;8.52;7.63;;;21.10;77.80;;;;;;5072473;28;20036;-49
2021/09/15 10:06:32;;;;;;;8.05;7.28;;;21.10;77.80;;;;;;5089002;28;20044;-46
2021/09/15 10:09:00;;;;;;;8.10;7.30;;;21.10;77.80;;;;;;5093502;28;20090;-50
2021/09/15 10:11:27;;;;;;;8.40;7.53;;;21.10;77.80;;;;;;5092652;28;20159;-48
2021/09/15 10:13:53;;;;;;;7.57;6.82;;;21.10;77.80;;;;;;5093460;28;20579;-50
2021/09/15 10:16:21;;;;;;;8.00;7.20;;;21.10;77.80;;;;;;5092290;28;20130;-44
2021/09/15 10:19:04;;;;;;;8.75;7.40;;;21.10;77.80;;;;;;5092441;28;20051;-45
2021/09/15 10:21:32;;;;;;;7.95;7.10;;;21.10;77.80;;;;;;5093140;28;20051;-47
2021/09/15 10:23:58;;;;;;;7.63;6.88;;;21.10;77.80;;;;;;5091850;28;20494;-46
2021/09/15 10:26:41;;;;;;;8.25;6.72;;;21.10;77.70;;;;;;5092035;28;20047;-44
2021/09/15 10:29:16;;;;;;;7.78;6.97;;;21.10;77.80;;;;;;5092894;28;20082;-45
2021/09/15 10:31:50;;;;;;;8.57;7.25;;;21.10;77.80;;;;;;5092768;28;20122;-46
2021/09/15 10:34:40;;;;;;;8.68;6.20;;;21.10;77.80;;;;;;5092214;28;20051;-45
2021/09/15 10:37:10;;;;;;;7.60;6.70;;;21.10;77.80;;;;;;5092595;28;20568;-45
2021/09/15 10:39:54;;;;;;;8.02;6.63;;;21.10;77.70;;;;;;5092967;28;20433;-45
2021/09/15 10:42:38;;;;;;;7.00;6.30;;;21.10;77.80;;;;;;5092313;28;20082;-47
2021/09/15 10:45:10;;;;;;;6.65;5.75;;;21.10;77.80;;;;;;5091555;28;20462;-43
2021/09/15 10:47:40;;;;;;;7.60;6.57;;;21.10;77.80;;;;;;5091173;28;20048;-43
2021/09/15 10:50:07;;;;;;;7.60;6.32;;;21.10;77.70;;;;;;5091818;28;20346;-46
2021/09/15 10:52:41;;;;;;;6.72;6.03;;;21.10;77.70;;;;;;5091510;28;20047;-47
2021/09/15 10:55:20;;;;;;;6.57;5.93;;;21.10;77.70;;;;;;5091661;28;20079;-44
2021/09/15 10:57:47;;;;;;;6.25;5.65;;;21.10;77.80;;;;;;5092533;28;20170;-49
2021/09/15 11:00:16;;;;;;;6.22;5.55;;;21.10;77.70;;;;;;5092411;28;20043;-45
2021/09/15 11:02:48;;;;;;;6.25;5.65;;;21.10;77.70;;;;;;5092178;28;20037;-45
2021/09/15 11:05:25;;;;;;;6.60;5.90;;;21.10;77.70;;;;;;5092896;28;20411;-46
2021/09/15 11:07:51;;;;;;;5.70;5.10;;;21.20;77.80;;;;;;5093008;28;20076;-45
2021/09/15 11:10:31;;;;;;;6.03;5.43;;;21.10;77.70;;;;;;5091820;28;20444;-49
2021/09/15 11:13:02;;;;;;;6.20;5.60;;;21.10;77.70;;;;;;5090975;28;20087;-45
2021/09/15 11:15:30;;;;;;;5.93;5.32;;;21.10;77.70;;;;;;5090945;28;20036;-48
2021/09/15 11:17:57;;;;;;;5.68;4.97;;;21.10;77.70;;;;;;5087921;28;20055;-45
2021/09/15 11:20:25;;;;;;;5.53;4.97;;;21.10;77.70;;;;;;5088328;28;20451;-46
2021/09/15 11:22:51;;;;;;;5.80;5.20;;;21.10;77.70;;;;;;5088550;28;20037;-41
2021/09/15 11:25:22;;;;;;;5.35;4.85;;;21.10;77.70;;;;;;5088884;28;20043;-47
2021/09/15 11:28:14;;;;;;;5.68;5.07;;;21.10;77.70;;;;;;5089175;28;20032;-45
2021/09/15 11:31:01;;;;;;;5.68;4.80;;;21.10;77.80;;;;;;5088305;28;20044;-44
2021/09/15 11:33:29;;;;;;;5.72;5.05;;;21.20;77.80;;;;;;5086894;28;20518;-46
2021/09/15 11:36:03;;;;;;;5.88;5.30;;;21.10;77.70;;;;;;5087186;28;20071;-45
2021/09/15 11:38:33;;;;;;;5.38;4.85;;;21.10;77.70;;;;;;5088853;28;20810;-45
2021/09/15 11:41:14;;;;;;;5.28;4.78;;;21.10;77.70;;;;;;5088367;28;20044;-42
2021/09/15 11:43:45;;;;;;;5.00;4.50;;;21.10;77.70;;;;;;5089225;28;20048;-46
2021/09/15 11:46:11;;;;;;;5.03;4.53;;;21.10;77.70;;;;;;5088226;28;20055;-46
2021/09/15 11:48:38;;;;;;;4.85;4.35;;;21.10;77.70;;;;;;5088814;28;20052;-47
2021/09/15 11:51:25;;;;;;;5.30;4.80;;;21.10;77.70;;;;;;5088524;28;20040;-45
2021/09/15 11:54:03;;;;;;;4.90;4.32;;;21.20;77.80;;;;;;5087807;28;20048;-45
2021/09/15 11:56:37;;;;;;;5.22;4.72;;;21.10;77.70;;;;;;5090248;28;20501;-48
2021/09/15 11:59:03;;;;;;;5.07;4.57;;;21.10;77.70;;;;;;5091966;28;20252;-42
2021/09/15 12:01:37;;;;;;;4.90;4.30;;;21.10;77.70;;;;;;5091334;28;20048;-42
2021/09/15 12:04:05;;;;;;;4.65;4.25;;;21.20;77.70;;;;;;5090363;28;20411;-46
2021/09/15 12:06:31;;;;;;;5.43;4.88;;;21.20;77.80;;;;;;5093901;28;20040;-45
2021/09/15 12:08:59;;;;;;;5.05;4.55;;;21.10;77.70;;;;;;5095894;28;20493;-48
2021/09/15 12:11:44;;;;;;;6.30;4.40;;;21.20;77.70;;;;;;5095957;28;20481;-49
2021/09/15 12:14:10;;;;;;;6.00;4.88;;;21.20;77.70;;;;;;5094677;28;20115;-47
2021/09/15 12:16:41;;;;;;;4.80;4.30;;;21.10;78.40;;;;;;5096032;28;20083;-47
2021/09/15 12:19:18;;;;;;;5.45;4.95;;;21.20;77.80;;;;;;5093667;28;20040;-48
2021/09/15 12:21:51;;;;;;;4.80;4.30;;;21.20;77.80;;;;;;5091967;28;20040;-45
2021/09/15 12:24:19;;;;;;;5.18;4.60;;;21.20;77.80;;;;;;5094751;28;20234;-48
2021/09/15 12:26:46;;;;;;;5.28;4.57;;;21.10;78.40;;;;;;5094910;28;20040;-48
2021/09/15 12:29:14;;;;;;;5.05;4.57;;;21.20;77.70;;;;;;5094923;28;20492;-47
2021/09/15 12:31:43;;;;;;;4.97;4.43;;;21.20;77.70;;;;;;5093642;28;20110;-48
2021/09/15 12:34:09;;;;;;;5.05;4.60;;;21.20;77.70;;;;;;5094580;28;20044;-42
2021/09/15 12:36:35;;;;;;;5.30;4.80;;;21.10;77.70;;;;;;5093940;28;20408;-46
2021/09/15 12:39:11;;;;;;;4.65;4.20;;;21.20;77.70;;;;;;5094263;28;20036;-47
2021/09/15 12:41:56;;;;;;;5.38;4.88;;;21.20;77.70;;;;;;5092937;28;20083;-48
2021/09/15 12:44:26;;;;;;;4.80;4.30;;;21.20;77.80;;;;;;5093348;28;20038;-47
2021/09/15 12:46:55;;;;;;;4.82;4.32;;;21.20;77.70;;;;;;5093045;28;20078;-49
2021/09/15 12:49:26;;;;;;;4.72;4.28;;;21.20;77.70;;;;;;5094170;28;20040;-46
2021/09/15 12:52:15;;;;;;;5.45;4.90;;;21.20;77.70;;;;;;5093535;28;20181;-49
2021/09/15 12:55:00;;;;;;;4.68;4.28;;;21.20;77.80;;;;;;5094486;28;20119;-44
2021/09/15 12:57:29;;;;;;;4.68;4.28;;;21.20;77.70;;;;;;5094673;28;20054;-46